Time;durP1;ratioP1;P1;durP2;ratioP2;P2;SDS_P1;SDS_P2;PMS_P1;PMS_P2;Temp;Humidity;BMP_temperature;BMP_pressure;BME280_temperature;BME280_humidity;BME280_pressure;Samples;Min_cycle;Max_cycle;Signal;HPM_P1;HPM_P2
2023/10/22 00:02:05;;;;;;;5.53;3.85;;;;;;;8.24;100.00;100272.06;4958844;28;20910;-46
2023/10/22 00:04:31;;;;;;;10.05;3.97;;;;;;;8.20;100.00;100267.78;4950566;28;20202;-45
2023/10/22 00:06:57;;;;;;;4.82;3.67;;;;;;;8.21;100.00;100273.06;4950001;28;20679;-44
2023/10/22 00:09:23;;;;;;;8.18;4.20;;;;;;;8.22;100.00;100268.56;4962948;28;20174;-45
2023/10/22 00:11:48;;;;;;;4.63;3.75;;;;;;;8.19;100.00;100272.25;4961368;28;20210;-45
2023/10/22 00:14:14;;;;;;;6.10;4.03;;;;;;;8.18;100.00;100280.31;4959663;28;20275;-45
2023/10/22 00:16:39;;;;;;;9.98;3.78;;;;;;;8.17;100.00;100279.44;4962753;28;20595;-44
2023/10/22 00:19:06;;;;;;;7.30;4.07;;;;;;;8.19;100.00;100277.56;4960631;28;20200;-45
2023/10/22 00:21:32;;;;;;;8.00;3.50;;;;;;;8.23;100.00;100270.34;4964570;28;20552;-44
2023/10/22 00:23:57;;;;;;;6.88;3.83;;;;;;;8.18;100.00;100265.19;4959367;28;20214;-45
2023/10/22 00:26:23;;;;;;;9.48;3.92;;;;;;;8.17;100.00;100271.41;4959278;28;20178;-44
2023/10/22 00:28:50;;;;;;;5.65;4.07;;;;;;;8.15;100.00;100267.06;4957405;28;20198;-44
2023/10/22 00:31:16;;;;;;;5.65;3.63;;;;;;;8.13;100.00;100266.25;4961734;28;20565;-43
2023/10/22 00:33:41;;;;;;;7.03;3.60;;;;;;;8.09;100.00;100262.84;4945193;28;20473;-45
2023/10/22 00:36:07;;;;;;;7.00;3.92;;;;;;;8.11;100.00;100265.44;4947169;28;20210;-43
2023/10/22 00:38:33;;;;;;;7.93;3.13;;;;;;;8.13;100.00;100259.13;4958914;28;20262;-44
2023/10/22 00:40:58;;;;;;;4.28;2.75;;;;;;;8.10;100.00;100264.59;4960367;28;20246;-45
2023/10/22 00:43:23;;;;;;;3.92;3.15;;;;;;;8.15;100.00;100272.41;4962664;28;20186;-45
2023/10/22 00:45:49;;;;;;;6.57;3.00;;;;;;;8.11;100.00;100257.44;4960981;28;20202;-44
2023/10/22 00:48:17;;;;;;;7.30;2.92;;;;;;;8.09;100.00;100261.97;4962512;28;20201;-45
2023/10/22 00:50:43;;;;;;;5.95;3.30;;;;;;;8.09;100.00;100264.63;4959245;28;20544;-43
2023/10/22 00:53:12;;;;;;;5.00;3.15;;;;;;;8.12;100.00;100264.53;4962212;28;21132;-44
2023/10/22 00:55:39;;;;;;;5.50;2.92;;;;;;;8.14;100.00;100263.53;4956392;28;20206;-45
2023/10/22 00:58:06;;;;;;;6.13;3.55;;;;;;;8.10;100.00;100269.91;4944906;28;20681;-44
2023/10/22 01:00:33;;;;;;;6.30;2.85;;;;;;;8.11;100.00;100269.00;4963066;28;20185;-44
2023/10/22 01:03:03;;;;;;;3.80;3.03;;;;;;;8.05;100.00;100267.44;4948777;28;20274;-45
2023/10/22 01:05:29;;;;;;;6.97;2.60;;;;;;;8.09;100.00;100264.63;4934201;28;20222;-45
2023/10/22 01:07:56;;;;;;;5.00;3.20;;;;;;;8.09;100.00;100268.19;4945389;28;20658;-45
2023/10/22 01:10:21;;;;;;;4.95;3.03;;;;;;;8.02;100.00;100261.31;4942516;28;20222;-45
2023/10/22 01:12:47;;;;;;;5.88;2.97;;;;;;;8.10;100.00;100261.91;4957388;28;20281;-44
2023/10/22 01:15:12;;;;;;;10.20;2.97;;;;;;;8.04;100.00;100256.81;4949539;28;20214;-43
2023/10/22 01:17:38;;;;;;;3.85;2.78;;;;;;;8.07;100.00;100254.03;4962395;28;20660;-45
2023/10/22 01:20:05;;;;;;;4.28;2.47;;;;;;;8.04;100.00;100256.81;4965212;28;20277;-45
2023/10/22 01:22:33;;;;;;;7.30;2.70;;;;;;;8.04;100.00;100259.47;4966580;28;20629;-45
2023/10/22 01:24:58;;;;;;;5.53;3.05;;;;;;;8.03;100.00;100253.28;4961139;28;20301;-46
2023/10/22 01:27:23;;;;;;;5.80;2.83;;;;;;;8.04;100.00;100244.31;4963278;28;20321;-47
2023/10/22 01:29:49;;;;;;;8.18;2.78;;;;;;;8.09;100.00;100254.84;4959993;28;20178;-44
2023/10/22 01:32:15;;;;;;;4.40;2.63;;;;;;;8.05;100.00;100248.75;4951174;28;20190;-45
2023/10/22 01:34:41;;;;;;;9.50;2.53;;;;;;;8.07;100.00;100250.47;4961012;28;20198;-44
2023/10/22 01:37:06;;;;;;;2.40;2.20;;;;;;;8.05;100.00;100246.09;4966828;28;20318;-44
2023/10/22 01:39:32;;;;;;;5.03;2.70;;;;;;;8.07;100.00;100247.81;4950396;28;20201;-45
2023/10/22 01:41:57;;;;;;;5.13;2.55;;;;;;;8.08;100.00;100237.09;4963871;28;20261;-45
2023/10/22 01:44:23;;;;;;;4.30;2.47;;;;;;;8.09;100.00;100243.28;4964454;28;20357;-45
2023/10/22 01:46:48;;;;;;;5.72;2.50;;;;;;;8.05;100.00;100245.22;4962335;28;20198;-43
2023/10/22 01:49:14;;;;;;;6.30;2.55;;;;;;;8.11;100.00;100237.00;4962080;28;20217;-45
2023/10/22 01:51:39;;;;;;;5.22;2.58;;;;;;;8.13;100.00;100231.56;4954947;28;20684;-45
2023/10/22 01:54:07;;;;;;;5.50;2.55;;;;;;;8.07;100.00;100229.13;4965013;28;20224;-44
2023/10/22 01:56:33;;;;;;;5.13;2.65;;;;;;;8.11;100.00;100237.00;4966845;28;20190;-45
2023/10/22 01:58:58;;;;;;;6.22;2.60;;;;;;;8.09;100.00;100229.94;4954653;28;20187;-45
2023/10/22 02:01:26;;;;;;;2.53;1.88;;;;;;;8.03;100.00;100234.59;4935990;28;20636;-44
2023/10/22 02:03:51;;;;;;;2.92;2.10;;;;;;;8.07;100.00;100235.38;4963800;28;20181;-45
2023/10/22 02:06:17;;;;;;;6.07;2.00;;;;;;;8.03;100.00;100225.72;4962808;28;20189;-46
2023/10/22 02:08:45;;;;;;;4.72;2.35;;;;;;;8.03;100.00;100231.94;4964278;28;21011;-44
2023/10/22 02:11:11;;;;;;;3.67;1.73;;;;;;;8.02;100.00;100224.88;4965875;28;20209;-46
2023/10/22 02:13:37;;;;;;;6.55;2.50;;;;;;;8.06;100.00;100222.94;4947038;28;20179;-43
2023/10/22 02:16:03;;;;;;;5.60;2.00;;;;;;;8.03;100.00;100226.59;4943748;28;20736;-45
2023/10/22 02:18:28;;;;;;;2.80;1.77;;;;;;;8.02;100.00;100218.63;4962909;28;20178;-46
2023/10/22 02:21:03;;;;;;;3.92;1.65;;;;;;;8.11;100.00;100210.31;4948364;28;20193;-45
2023/10/22 02:23:29;;;;;;;2.97;2.22;;;;;;;8.05;100.00;100211.41;4960397;28;20181;-45
2023/10/22 02:25:54;;;;;;;7.38;2.10;;;;;;;7.98;100.00;100212.56;4952534;28;20222;-44
2023/10/22 02:28:20;;;;;;;1.70;1.58;;;;;;;8.00;100.00;100210.72;4962499;28;20193;-44
2023/10/22 02:30:50;;;;;;;4.32;2.00;;;;;;;8.00;100.00;100204.47;4951171;28;20328;-44
2023/10/22 02:33:16;;;;;;;2.55;1.52;;;;;;;8.06;100.00;100204.25;4949901;28;20198;-44
2023/10/22 02:35:43;;;;;;;2.90;2.08;;;;;;;7.99;100.00;100202.75;4964241;28;20198;-46
2023/10/22 02:38:12;;;;;;;4.10;1.80;;;;;;;8.02;100.00;100199.97;4962391;28;20545;-44
2023/10/22 02:40:38;;;;;;;3.25;1.98;;;;;;;8.01;100.00;100201.75;4950695;28;20194;-45
2023/10/22 02:43:06;;;;;;;5.63;2.53;;;;;;;8.03;100.00;100197.25;4948843;28;20186;-44
2023/10/22 02:45:32;;;;;;;5.63;1.63;;;;;;;7.95;100.00;100202.00;4963727;28;20206;-44
2023/10/22 02:47:59;;;;;;;2.42;1.60;;;;;;;7.95;100.00;100190.47;4953856;28;20194;-45
2023/10/22 02:50:25;;;;;;;2.58;1.60;;;;;;;7.99;100.00;100192.09;4965941;28;20186;-46
2023/10/22 02:52:51;;;;;;;4.35;2.00;;;;;;;7.92;100.00;100183.44;4948386;28;20190;-46
2023/10/22 02:55:17;;;;;;;3.08;1.50;;;;;;;7.94;100.00;100188.75;4947165;28;20272;-44
2023/10/22 02:57:43;;;;;;;4.43;1.67;;;;;;;7.95;100.00;100191.31;4966465;28;20310;-46
2023/10/22 03:00:10;;;;;;;3.33;1.70;;;;;;;7.94;100.00;100189.59;4961269;28;20273;-44
2023/10/22 03:02:40;;;;;;;4.32;1.67;;;;;;;7.92;100.00;100185.25;4946214;28;20281;-47
2023/10/22 03:05:06;;;;;;;2.85;1.80;;;;;;;7.93;100.00;100186.97;4962109;28;20257;-45
2023/10/22 03:07:31;;;;;;;4.10;1.58;;;;;;;7.94;100.00;100178.06;4947816;28;20205;-45
2023/10/22 03:09:57;;;;;;;5.10;1.45;;;;;;;7.94;100.00;100194.94;4963388;28;20194;-45
2023/10/22 03:12:22;;;;;;;3.35;1.50;;;;;;;7.95;100.00;100185.13;4964443;28;20244;-47
2023/10/22 03:14:52;;;;;;;5.35;1.58;;;;;;;7.95;100.00;100186.00;4948670;28;20202;-45
2023/10/22 03:17:18;;;;;;;4.15;1.67;;;;;;;8.00;100.00;100191.16;4949902;28;20186;-44
2023/10/22 03:19:44;;;;;;;4.53;1.63;;;;;;;8.05;100.00;100191.84;4966197;28;20269;-43
2023/10/22 03:22:09;;;;;;;3.90;1.70;;;;;;;8.03;100.00;100188.38;4954261;28;20222;-45
2023/10/22 03:24:36;;;;;;;4.13;1.83;;;;;;;8.03;100.00;100186.56;4960521;28;20242;-45
2023/10/22 03:27:04;;;;;;;4.05;1.70;;;;;;;8.12;100.00;100198.69;4950313;28;20699;-45
2023/10/22 03:29:30;;;;;;;3.75;1.63;;;;;;;8.05;100.00;100191.84;4946887;28;20199;-43
2023/10/22 03:31:57;;;;;;;3.13;1.42;;;;;;;8.04;100.00;100184.78;4961147;28;20201;-44
2023/10/22 03:34:24;;;;;;;3.78;1.58;;;;;;;8.01;100.00;100182.22;4962250;28;20680;-44
2023/10/22 03:36:49;;;;;;;2.78;1.60;;;;;;;8.01;100.00;100187.56;4960462;28;20183;-44
2023/10/22 03:39:15;;;;;;;2.17;1.48;;;;;;;8.01;100.00;100180.44;4947454;28;20647;-44
2023/10/22 03:41:40;;;;;;;3.78;1.58;;;;;;;7.99;100.00;100184.94;4962929;28;20560;-45
2023/10/22 03:44:06;;;;;;;1.58;1.25;;;;;;;8.01;100.00;100185.75;4961330;28;20779;-45
2023/10/22 03:46:32;;;;;;;3.05;1.33;;;;;;;8.00;100.00;100180.47;4959156;28;20591;-44
2023/10/22 03:48:58;;;;;;;2.67;1.42;;;;;;;7.98;100.00;100179.66;4960202;28;20204;-46
2023/10/22 03:51:24;;;;;;;5.53;1.80;;;;;;;7.98;100.00;100169.88;4962965;28;20229;-45
2023/10/22 03:53:53;;;;;;;2.63;1.65;;;;;;;8.04;100.00;100171.44;4965062;28;20182;-43
2023/10/22 03:56:20;;;;;;;5.97;1.75;;;;;;;7.97;100.00;100162.78;4963453;28;20194;-46
2023/10/22 03:58:46;;;;;;;3.50;1.23;;;;;;;7.95;100.00;100164.66;4960910;28;20186;-44
2023/10/22 04:01:11;;;;;;;4.05;1.60;;;;;;;7.97;100.00;100177.94;4962508;28;20193;-44
2023/10/22 04:03:37;;;;;;;2.72;1.52;;;;;;;8.00;100.00;100173.38;4963330;28;20609;-43
2023/10/22 04:06:03;;;;;;;2.28;1.27;;;;;;;7.95;100.00;100169.97;4959214;28;20214;-46
2023/10/22 04:08:28;;;;;;;5.05;1.70;;;;;;;7.98;100.00;100177.00;4962174;28;20244;-44
2023/10/22 04:10:54;;;;;;;3.50;1.48;;;;;;;7.98;100.00;100163.66;4962652;28;20190;-46
2023/10/22 04:13:19;;;;;;;3.08;1.15;;;;;;;7.97;100.00;100169.94;4964644;28;20193;-45
2023/10/22 04:15:45;;;;;;;5.07;1.60;;;;;;;7.92;100.00;100172.78;4960536;28;20225;-46
2023/10/22 04:18:13;;;;;;;2.83;1.70;;;;;;;7.96;100.00;100173.50;4961812;28;20188;-46
2023/10/22 04:20:39;;;;;;;4.90;1.80;;;;;;;7.93;100.00;100170.97;4961847;28;20187;-44
2023/10/22 04:23:04;;;;;;;3.42;1.88;;;;;;;7.96;100.00;100166.41;4962308;28;20712;-45
2023/10/22 04:25:36;;;;;;;2.58;1.30;;;;;;;7.94;100.00;100165.59;4958782;28;20207;-45
2023/10/22 04:28:03;;;;;;;2.97;1.45;;;;;;;7.95;100.00;100166.44;4959898;28;20194;-44
2023/10/22 04:30:28;;;;;;;3.60;2.28;;;;;;;7.94;100.00;100168.25;4963997;28;20183;-44
2023/10/22 04:32:54;;;;;;;3.30;1.30;;;;;;;7.93;100.00;100162.97;4956586;28;20687;-44
2023/10/22 04:35:19;;;;;;;3.58;1.50;;;;;;;7.96;100.00;100163.75;4963197;28;20198;-46
2023/10/22 04:37:45;;;;;;;6.40;1.75;;;;;;;7.94;100.00;100159.41;4962525;28;20201;-45
2023/10/22 04:40:11;;;;;;;5.72;1.90;;;;;;;7.89;100.00;100150.69;4959094;28;20174;-46
2023/10/22 04:42:36;;;;;;;4.63;1.67;;;;;;;7.87;100.00;100152.53;4961499;28;20182;-46
2023/10/22 04:45:02;;;;;;;9.98;1.70;;;;;;;7.86;100.00;100159.66;4960846;28;20269;-44
2023/10/22 04:47:27;;;;;;;3.55;1.40;;;;;;;7.90;100.00;100157.78;4960421;28;20197;-47
2023/10/22 04:49:54;;;;;;;7.03;1.40;;;;;;;7.89;100.00;100154.22;4959459;28;20201;-47
2023/10/22 04:52:33;;;;;;;1.98;1.63;;;;;;;7.95;100.00;100153.13;5005059;23;20221;-43
2023/10/22 04:55:00;;;;;;;4.53;1.60;;;;;;;7.92;100.00;100148.78;4976874;28;20217;-43
2023/10/22 04:57:29;;;;;;;3.38;1.60;;;;;;;7.83;100.00;100154.47;4983878;28;20420;-41
2023/10/22 04:59:54;;;;;;;1.83;1.30;;;;;;;7.87;100.00;100153.44;4979128;28;20193;-44
2023/10/22 05:02:20;;;;;;;5.45;1.40;;;;;;;7.80;100.00;100151.91;4986480;28;20228;-44
2023/10/22 05:04:47;;;;;;;3.95;1.20;;;;;;;7.80;100.00;100151.91;4988186;28;20201;-43
2023/10/22 05:07:15;;;;;;;4.43;1.35;;;;;;;7.81;100.00;100150.97;4985009;28;20178;-42
2023/10/22 05:09:42;;;;;;;4.57;1.98;;;;;;;7.78;100.00;100153.75;4986958;28;20649;-42
2023/10/22 05:12:07;;;;;;;4.20;1.17;;;;;;;7.84;100.00;100157.06;4984850;28;20225;-42
2023/10/22 05:14:33;;;;;;;5.20;1.48;;;;;;;7.79;100.00;100147.50;4987324;28;20229;-43
2023/10/22 05:16:58;;;;;;;3.38;1.23;;;;;;;7.77;100.00;100160.88;4984192;28;20190;-43
2023/10/22 05:19:24;;;;;;;1.50;1.17;;;;;;;7.78;100.00;100156.41;4984198;28;20583;-44
2023/10/22 05:21:51;;;;;;;4.35;1.45;;;;;;;7.73;100.00;100150.41;4987551;28;20200;-43
2023/10/22 05:24:17;;;;;;;5.72;1.40;;;;;;;7.76;100.00;100147.59;4984704;28;20563;-44
2023/10/22 05:26:43;;;;;;;4.38;1.10;;;;;;;7.75;100.00;100146.75;4984975;28;20197;-43
2023/10/22 05:29:08;;;;;;;3.83;1.45;;;;;;;7.73;100.00;100156.59;4983547;28;20560;-43
2023/10/22 05:31:34;;;;;;;5.13;1.63;;;;;;;7.74;100.00;100163.69;4986096;28;20265;-42
2023/10/22 05:33:59;;;;;;;5.15;1.40;;;;;;;7.76;100.00;100166.25;4984172;28;20441;-44
2023/10/22 05:36:25;;;;;;;2.08;1.25;;;;;;;7.80;100.00;100168.75;4983396;28;20208;-42
2023/10/22 05:38:51;;;;;;;6.47;1.30;;;;;;;7.73;100.00;100164.59;4985786;28;20185;-43
2023/10/22 05:41:23;;;;;;;4.43;1.63;;;;;;;7.67;100.00;100159.47;4970025;28;20189;-42
2023/10/22 05:44:08;;;;;;;6.32;1.75;;;;;;;7.70;100.00;100155.84;4981919;28;20193;-41
2023/10/22 05:46:34;;;;;;;3.75;1.40;;;;;;;7.68;100.00;100158.56;4982149;28;20851;-44
2023/10/22 05:49:00;;;;;;;3.15;1.10;;;;;;;7.64;100.00;100162.28;4986387;28;20182;-42
2023/10/22 05:51:26;;;;;;;1.45;1.20;;;;;;;7.56;100.00;100169.66;4984476;28;20186;-41
2023/10/22 05:53:51;;;;;;;2.03;1.27;;;;;;;7.61;100.00;100165.06;4985881;28;20185;-43
2023/10/22 05:56:17;;;;;;;1.85;1.65;;;;;;;7.63;100.00;100165.84;4970029;28;20211;-45
2023/10/22 05:58:43;;;;;;;3.83;1.23;;;;;;;7.66;100.00;100168.41;4983142;28;20200;-42
2023/10/22 06:01:10;;;;;;;5.95;1.20;;;;;;;7.68;100.00;100171.03;4981380;28;20234;-49
2023/10/22 06:03:36;;;;;;;5.78;1.52;;;;;;;7.64;100.00;100171.13;4984781;28;20215;-43
2023/10/22 06:06:02;;;;;;;2.45;1.10;;;;;;;7.63;100.00;100171.19;4984394;28;20211;-42
2023/10/22 06:08:28;;;;;;;3.75;1.63;;;;;;;7.58;100.00;100168.69;4985958;28;20205;-42
2023/10/22 06:10:53;;;;;;;6.40;1.45;;;;;;;7.61;100.00;100163.25;4984511;28;20686;-44
2023/10/22 06:13:19;;;;;;;5.75;1.50;;;;;;;7.63;100.00;100163.19;4983040;28;20205;-43
2023/10/22 06:15:45;;;;;;;3.15;1.17;;;;;;;7.64;100.00;100175.59;4986279;28;20209;-44
2023/10/22 06:18:11;;;;;;;6.15;1.70;;;;;;;7.66;100.00;100178.22;4981155;28;20186;-43
2023/10/22 06:20:38;;;;;;;3.85;1.33;;;;;;;7.68;100.00;100166.56;4978231;28;20186;-43
2023/10/22 06:23:04;;;;;;;4.18;1.42;;;;;;;7.73;100.00;100185.91;4985690;28;20190;-42
2023/10/22 06:25:31;;;;;;;6.88;1.35;;;;;;;7.74;100.00;100173.44;4983002;28;20217;-41
2023/10/22 06:27:58;;;;;;;4.80;1.20;;;;;;;7.65;100.00;100174.66;4980908;28;20185;-41
2023/10/22 06:30:25;;;;;;;4.65;1.40;;;;;;;7.72;100.00;100183.31;4983571;28;20193;-42
2023/10/22 06:32:51;;;;;;;3.90;1.33;;;;;;;7.77;100.00;100187.56;4981532;28;20186;-42
2023/10/22 06:35:18;;;;;;;2.40;1.30;;;;;;;7.80;100.00;100184.75;4983959;28;20271;-42
2023/10/22 06:37:43;;;;;;;3.33;1.15;;;;;;;7.88;100.00;100181.81;4982361;28;20190;-42
2023/10/22 06:40:09;;;;;;;3.08;1.00;;;;;;;7.90;100.00;100184.44;4981202;28;20268;-44
2023/10/22 06:42:35;;;;;;;5.95;1.38;;;;;;;7.95;100.00;100195.78;4979823;28;20366;-42
2023/10/22 06:45:00;;;;;;;4.20;1.30;;;;;;;8.07;100.00;100189.13;4981626;28;20488;-43
2023/10/22 06:47:26;;;;;;;6.20;1.52;;;;;;;8.27;100.00;100191.03;4981704;28;20303;-42
2023/10/22 06:49:52;;;;;;;2.97;1.25;;;;;;;8.26;100.00;100190.16;4978890;28;20201;-42
2023/10/22 06:52:19;;;;;;;2.65;1.45;;;;;;;8.24;100.00;100184.88;4982927;28;20256;-42
2023/10/22 06:54:44;;;;;;;3.72;1.23;;;;;;;8.29;100.00;100195.38;4981914;28;20205;-41
2023/10/22 06:57:10;;;;;;;2.03;1.10;;;;;;;8.33;100.00;100197.00;4981061;28;20218;-43
2023/10/22 06:59:35;;;;;;;4.30;1.20;;;;;;;8.34;100.00;100190.72;4981560;28;20204;-42
2023/10/22 07:02:01;;;;;;;3.90;1.23;;;;;;;8.43;100.00;100200.19;4981705;28;20181;-42
2023/10/22 07:04:26;;;;;;;2.20;1.65;;;;;;;8.47;100.00;100203.63;4979505;28;20246;-42
2023/10/22 07:06:52;;;;;;;3.80;1.02;;;;;;;8.54;100.00;100199.78;4981487;28;20189;-43
2023/10/22 07:09:17;;;;;;;4.68;1.67;;;;;;;8.54;100.00;100203.31;4980005;28;20189;-43
2023/10/22 07:11:43;;;;;;;2.08;1.00;;;;;;;8.58;100.00;100202.25;4966484;28;20541;-43
2023/10/22 07:14:09;;;;;;;4.85;1.40;;;;;;;8.57;100.00;100196.97;4983396;28;20209;-42
2023/10/22 07:16:34;;;;;;;2.83;1.23;;;;;;;8.81;100.00;100195.09;4979620;28;20185;-42
2023/10/22 07:19:00;;;;;;;3.22;1.30;;;;;;;9.05;100.00;100190.53;4978712;28;20668;-41
2023/10/22 07:21:26;;;;;;;1.65;1.10;;;;;;;9.17;100.00;100182.00;4956301;28;20196;-43
2023/10/22 07:23:51;;;;;;;4.57;1.33;;;;;;;9.14;100.00;100191.97;4982259;28;20294;-42
2023/10/22 07:26:17;;;;;;;1.40;1.23;;;;;;;9.26;100.00;100178.94;4978984;28;20668;-42
2023/10/22 07:28:44;;;;;;;3.60;1.48;;;;;;;9.22;100.00;100189.84;4984872;28;20276;-41
2023/10/22 07:31:11;;;;;;;4.20;1.23;;;;;;;9.30;100.00;100184.16;4983802;28;20228;-41
2023/10/22 07:33:37;;;;;;;1.08;1.00;;;;;;;9.29;100.00;100183.28;4981221;28;20590;-42
2023/10/22 07:36:04;;;;;;;1.23;1.10;;;;;;;9.36;100.00;100182.09;4979027;28;20264;-42
2023/10/22 07:38:31;;;;;;;3.92;1.23;;;;;;;9.36;100.00;100182.09;4984609;28;20222;-43
2023/10/22 07:40:57;;;;;;;2.88;1.15;;;;;;;9.48;100.00;100186.88;4979625;28;20268;-42
2023/10/22 07:43:25;;;;;;;2.13;1.00;;;;;;;9.53;100.00;100183.16;4984782;28;20182;-43
2023/10/22 07:45:51;;;;;;;1.65;1.05;;;;;;;9.61;100.00;100179.19;4981867;28;20209;-42
2023/10/22 07:48:16;;;;;;;2.35;1.10;;;;;;;9.68;100.00;100177.13;4982418;28;20189;-42
2023/10/22 07:50:41;;;;;;;2.20;0.90;;;;;;;9.71;100.00;100168.97;4983354;28;20271;-43
2023/10/22 07:53:07;;;;;;;3.15;1.20;;;;;;;9.76;100.00;100180.31;4983747;28;20714;-41
2023/10/22 07:55:34;;;;;;;2.97;1.42;;;;;;;9.84;100.00;100182.66;4981612;28;20272;-41
2023/10/22 07:58:00;;;;;;;4.18;1.35;;;;;;;9.90;100.00;100171.66;4981013;28;20206;-42
2023/10/22 08:00:25;;;;;;;6.72;1.45;;;;;;;10.01;100.00;100174.69;4980961;28;20295;-43
2023/10/22 08:02:51;;;;;;;2.70;1.60;;;;;;;10.20;100.00;100172.03;4978904;28;20181;-43
2023/10/22 08:05:18;;;;;;;5.05;1.50;;;;;;;10.18;100.00;100165.88;4981169;28;20546;-42
2023/10/22 08:07:44;;;;;;;7.35;1.27;;;;;;;10.21;100.00;100156.84;4982787;28;20216;-42
2023/10/22 08:10:09;;;;;;;3.47;1.50;;;;;;;10.15;100.00;100162.50;4981489;28;20561;-42
2023/10/22 08:12:35;;;;;;;3.33;1.38;;;;;;;10.12;100.00;100166.16;4984590;28;20190;-43
2023/10/22 08:15:00;;;;;;;4.78;1.58;;;;;;;10.48;100.00;100163.59;4981338;28;20674;-42
2023/10/22 08:17:26;;;;;;;5.25;1.98;;;;;;;10.82;100.00;100153.00;4981660;28;20193;-43
2023/10/22 08:19:52;;;;;;;2.47;1.50;;;;;;;11.09;100.00;100156.97;4980114;28;20181;-42
2023/10/22 08:22:19;;;;;;;2.20;1.10;;;;;;;11.11;100.00;100155.09;4983604;28;20228;-44
2023/10/22 08:24:50;;;;;;;4.60;1.73;;;;;;;11.00;100.00;100148.53;4964484;28;20217;-42
2023/10/22 08:27:15;;;;;;;3.78;1.48;;;;;;;10.76;100.00;100156.88;4984944;28;20239;-43
2023/10/22 08:29:41;;;;;;;5.70;1.58;;;;;;;10.61;100.00;100155.81;4962791;28;20177;-41
2023/10/22 08:32:07;;;;;;;8.35;2.00;;;;;;;10.57;100.00;100154.22;4982350;28;20185;-42
2023/10/22 08:34:32;;;;;;;4.68;1.20;;;;;;;10.51;100.00;100160.75;4978739;28;20633;-43
2023/10/22 08:36:58;;;;;;;2.17;0.60;;;;;;;10.42;100.00;100154.97;4968474;28;20565;-41
2023/10/22 08:39:28;;;;;;;4.97;1.42;;;;;;;10.48;100.00;100150.19;4983044;28;20189;-43
2023/10/22 08:41:59;;;;;;;2.30;0.80;;;;;;;10.61;100.00;100157.63;4980511;28;20178;-41
2023/10/22 08:44:33;;;;;;;3.47;0.80;;;;;;;10.67;100.00;100151.94;4967694;28;20659;-43
2023/10/22 08:46:59;;;;;;;1.75;0.70;;;;;;;10.70;100.00;100139.28;4982035;28;20176;-41
2023/10/22 08:49:24;;;;;;;2.75;0.80;;;;;;;10.74;100.00;100147.19;4978768;28;20177;-42
2023/10/22 08:51:50;;;;;;;2.65;0.85;;;;;;;10.67;100.00;100141.25;4977900;28;20208;-42
2023/10/22 08:54:16;;;;;;;2.67;0.95;;;;;;;10.80;100.00;100153.09;4981203;28;20694;-43
2023/10/22 08:56:42;;;;;;;3.28;0.90;;;;;;;10.84;100.00;100151.13;4979319;28;20189;-43
2023/10/22 08:59:08;;;;;;;1.45;1.10;;;;;;;10.89;100.00;100146.41;4980846;28;20205;-43
2023/10/22 09:01:34;;;;;;;5.47;1.20;;;;;;;10.93;100.00;100151.53;4982625;28;20310;-42
2023/10/22 09:04:01;;;;;;;7.07;1.20;;;;;;;10.97;100.00;100154.06;4980204;28;20267;-41
2023/10/22 09:06:27;;;;;;;2.35;1.10;;;;;;;10.97;100.00;100164.78;4976290;28;20628;-42
2023/10/22 09:08:52;;;;;;;2.85;1.02;;;;;;;10.98;100.00;100161.16;4981468;28;20272;-41
2023/10/22 09:11:18;;;;;;;3.22;1.20;;;;;;;10.96;100.00;100168.41;4980714;28;20196;-41
2023/10/22 09:13:44;;;;;;;1.23;1.02;;;;;;;11.02;100.00;100152.00;4981704;28;20220;-42
2023/10/22 09:16:10;;;;;;;3.72;1.30;;;;;;;11.03;100.00;100154.59;4976210;28;20610;-42
2023/10/22 09:18:44;;;;;;;3.47;0.95;;;;;;;11.09;100.00;100162.34;4969892;28;20617;-41
2023/10/22 09:21:09;;;;;;;6.28;1.20;;;;;;;11.11;100.00;100152.41;4981101;28;20199;-42
2023/10/22 09:23:35;;;;;;;3.45;1.63;;;;;;;11.27;100.00;100156.97;4977932;28;20708;-42
2023/10/22 09:26:00;;;;;;;4.70;1.00;;;;;;;11.24;100.00;100154.44;4982042;28;20244;-42
2023/10/22 09:28:28;;;;;;;2.60;1.25;;;;;;;11.33;100.00;100154.00;4983174;28;20197;-41
2023/10/22 09:31:01;;;;;;;3.85;0.93;;;;;;;11.55;100.00;100176.03;4981191;28;20209;-43
2023/10/22 09:33:32;;;;;;;2.28;1.08;;;;;;;11.39;100.00;100164.41;4978647;28;20204;-41
2023/10/22 09:35:59;;;;;;;1.35;1.00;;;;;;;11.34;100.00;100161.94;4981575;28;20457;-42
2023/10/22 09:38:48;;;;;;;2.72;0.82;;;;;;;11.34;100.00;100171.78;4979974;28;20191;-42
2023/10/22 09:41:28;;;;;;;8.18;1.50;;;;;;;11.34;100.00;100166.44;4981149;28;20192;-43
2023/10/22 09:44:01;;;;;;;4.13;0.93;;;;;;;11.35;100.00;100181.59;4983527;28;20200;-44
2023/10/22 09:46:32;;;;;;;3.78;0.90;;;;;;;11.42;100.00;100164.22;4980856;28;20570;-42
2023/10/22 09:48:59;;;;;;;2.83;0.70;;;;;;;11.46;100.00;100164.94;4982621;28;20578;-42
2023/10/22 09:51:31;;;;;;;4.15;1.10;;;;;;;11.50;100.00;100163.81;4986139;28;20628;-43
2023/10/22 09:54:00;;;;;;;1.30;0.82;;;;;;;11.56;100.00;100166.16;4983261;28;20181;-42
2023/10/22 09:56:28;;;;;;;1.35;0.90;;;;;;;11.60;100.00;100165.06;4984968;28;20189;-42
2023/10/22 09:59:02;;;;;;;3.42;1.17;;;;;;;11.67;100.00;100160.25;4981083;28;20186;-43
2023/10/22 10:01:31;;;;;;;2.42;1.13;;;;;;;11.61;100.00;100163.25;4986725;28;20193;-43
2023/10/22 10:03:57;;;;;;;2.75;0.73;;;;;;;11.59;100.00;100167.81;4981821;28;20212;-42
2023/10/22 10:06:24;;;;;;;3.97;0.95;;;;;;;11.71;100.00;100165.34;4983345;28;20636;-42
2023/10/22 10:08:50;;;;;;;3.15;0.90;;;;;;;11.78;100.00;100152.47;4989136;28;20273;-42
2023/10/22 10:11:16;;;;;;;2.83;1.17;;;;;;;11.68;100.00;100157.47;4985521;28;20682;-43
2023/10/22 10:13:41;;;;;;;1.15;0.65;;;;;;;11.60;100.00;100164.19;4984186;28;20193;-41
2023/10/22 10:16:07;;;;;;;4.97;1.00;;;;;;;11.62;100.00;100165.00;4985666;28;20193;-43
2023/10/22 10:18:58;;;;;;;2.25;1.10;;;;;;;11.62;100.00;100171.22;4983581;28;20268;-42
2023/10/22 10:21:44;;;;;;;3.33;1.10;;;;;;;11.50;100.00;100170.06;4982575;28;20240;-43
2023/10/22 10:24:17;;;;;;;4.28;1.00;;;;;;;11.46;100.00;100167.63;4982357;28;20205;-42
2023/10/22 10:26:43;;;;;;;4.00;1.30;;;;;;;11.36;100.00;100183.31;4971827;28;20277;-42
2023/10/22 10:29:32;;;;;;;4.63;0.85;;;;;;;11.30;100.00;100180.94;4981689;28;20240;-42
2023/10/22 10:32:15;;;;;;;4.05;1.23;;;;;;;11.19;100.00;100188.69;4981458;28;20263;-42
2023/10/22 10:34:46;;;;;;;3.45;1.10;;;;;;;11.04;100.00;100180.50;4964761;28;20600;-42
2023/10/22 10:37:15;;;;;;;2.95;0.98;;;;;;;10.96;100.00;100200.59;4983344;28;20193;-42
2023/10/22 10:39:51;;;;;;;3.13;1.00;;;;;;;10.87;100.00;100202.75;4983304;28;20211;-44
2023/10/22 10:42:29;;;;;;;1.95;1.05;;;;;;;10.87;100.00;100209.94;4987541;28;20190;-43
2023/10/22 10:44:54;;;;;;;2.92;1.00;;;;;;;10.83;100.00;100198.50;4964588;28;20213;-43
2023/10/22 10:47:27;;;;;;;3.88;1.13;;;;;;;10.80;100.00;100211.16;4982562;28;20312;-48
2023/10/22 10:49:52;;;;;;;2.25;1.00;;;;;;;10.82;100.00;100207.50;4982417;28;20209;-44
2023/10/22 10:52:18;;;;;;;3.28;1.58;;;;;;;10.78;100.00;100207.69;4994101;23;20233;-41
2023/10/22 10:54:58;;;;;;;4.75;1.15;;;;;;;10.69;100.00;100207.22;4983529;28;20194;-43
2023/10/22 10:57:41;;;;;;;2.38;1.05;;;;;;;10.64;100.00;100211.91;4988275;28;20177;-41
2023/10/22 11:00:19;;;;;;;2.15;1.20;;;;;;;10.67;100.00;100211.78;4988154;28;20186;-41
2023/10/22 11:02:46;;;;;;;2.05;1.10;;;;;;;10.60;100.00;100212.16;4988998;28;20226;-41
2023/10/22 11:05:14;;;;;;;3.13;1.27;;;;;;;10.64;100.00;100214.59;4982072;28;20210;-42
2023/10/22 11:07:42;;;;;;;4.10;1.35;;;;;;;10.66;100.00;100217.22;4985916;28;20197;-42
2023/10/22 11:10:15;;;;;;;2.72;1.20;;;;;;;10.70;100.00;100218.81;4984685;28;20220;-41
2023/10/22 11:12:42;;;;;;;3.13;1.25;;;;;;;10.67;100.00;100224.28;4980411;28;20491;-42
2023/10/22 11:15:09;;;;;;;2.97;1.42;;;;;;;10.62;100.00;100215.63;4985227;28;20205;-41
2023/10/22 11:17:35;;;;;;;3.92;1.40;;;;;;;10.63;100.00;100220.91;4987873;28;20181;-41
2023/10/22 11:20:04;;;;;;;1.75;1.48;;;;;;;10.69;100.00;100223.31;4985194;28;20190;-41
2023/10/22 11:22:30;;;;;;;3.47;1.25;;;;;;;10.68;100.00;100229.59;4984017;28;20193;-41